Terminal Aerodrome Forecast
Issued by NWS Jacksonville, FL

Home | Current Version | Previous Version | Text Only | Print | Product List | Glossary On
Versions: 1 2 3 4 5 6 7 8 9 10 11 12 13 14 15 16 17 18 19 20 21 22 23 24 25 26 27 28 29 30 31 32 33 34 35 36
470
FTUS42 KJAX 190206 AAB
TAFJAX
TAF AMD
KJAX 190206Z 1902/1924 07008KT 1/2SM FG OVC002
     FM190500 08002KT 1/4SM FG OVC002
     FM191400 13008KT P6SM FEW015
     FM191700 12012KT P6SM BKN040=

USA.gov is the U.S. government's official web portal to all federal, state and local government web resources and services.